Time;durP1;ratioP1;P1;durP2;ratioP2;P2;SDS_P1;SDS_P2;PMS_P1;PMS_P2;Temp;Humidity;BMP_temperature;BMP_pressure;BME280_temperature;BME280_humidity;BME280_pressure;Samples;Min_cycle;Max_cycle;Signal;HPM_P1;HPM_P2
2021/03/02 15:19:22;;;;;;;28.17;12.28;;;;;;;4.78;63.37;100876.85;1797601;78;28116;-70
2021/03/02 15:22:13;;;;;;;27.50;12.45;;;;;;;4.59;63.24;100875.06;1783778;79;21380;-68
2021/03/02 15:24:44;;;;;;;32.88;12.43;;;;;;;4.45;63.59;100872.78;1637331;86;21288;-68
2021/03/02 15:27:15;;;;;;;29.45;12.43;;;;;;;4.30;63.81;100870.18;1643569;86;21455;-64
2021/03/02 15:29:56;;;;;;;28.95;12.18;;;;;;;4.22;64.16;100847.00;1642016;86;21895;-65
2021/03/02 15:32:26;;;;;;;30.10;12.45;;;;;;;4.18;64.30;100868.63;1604927;87;21954;-64
2021/03/02 15:34:53;;;;;;;32.03;12.15;;;;;;;4.09;64.44;100859.01;1625451;87;21531;-67
2021/03/02 15:37:21;;;;;;;34.55;13.72;;;;;;;4.01;64.56;100857.52;1625076;87;21321;-68
2021/03/02 15:39:48;;;;;;;29.02;11.03;;;;;;;3.95;64.78;100844.55;1601425;88;21446;-66
2021/03/02 15:42:16;;;;;;;32.23;11.78;;;;;;;3.90;64.95;100856.32;1636182;87;21447;-66
2021/03/02 15:44:46;;;;;;;28.98;11.70;;;;;;;3.87;65.04;100860.64;1613290;88;21429;-65
2021/03/02 15:47:13;;;;;;;29.72;11.80;;;;;;;3.80;65.04;100859.00;1601992;89;21473;-67
2021/03/02 15:49:41;;;;;;;32.95;12.28;;;;;;;3.75;65.28;100850.94;1620157;88;21548;-64
2021/03/02 15:52:08;;;;;;;34.53;12.75;;;;;;;3.72;65.51;100860.72;1643435;86;22392;-66
2021/03/02 15:54:36;;;;;;;27.95;11.43;;;;;;;3.68;65.68;100868.27;1641749;86;21221;-67
2021/03/02 15:57:05;;;;;;;33.75;12.18;;;;;;;3.68;65.67;100871.48;1611126;88;21162;-67
2021/03/02 15:59:33;;;;;;;36.42;12.65;;;;;;;3.66;65.78;100868.06;1604222;87;21582;-67
2021/03/02 16:02:15;;;;;;;32.03;12.40;;;;;;;3.64;65.96;100870.91;1641751;85;21444;-65
2021/03/02 16:05:05;;;;;;;30.10;11.48;;;;;;;3.63;65.96;100872.41;1621537;87;21220;-69
2021/03/02 16:07:42;;;;;;;34.85;12.75;;;;;;;3.58;66.00;100861.99;1623225;87;21187;-67
2021/03/02 16:10:13;;;;;;;31.30;11.08;;;;;;;3.55;66.14;100872.25;1623175;88;21432;-70
2021/03/02 16:12:42;;;;;;;28.80;10.38;;;;;;;3.53;66.26;100883.73;1622467;88;21525;-65
2021/03/02 16:15:11;;;;;;;27.75;11.68;;;;;;;3.55;66.32;100887.16;1621925;88;21957;-67
2021/03/02 16:17:44;;;;;;;36.98;13.80;;;;;;;3.53;66.40;100889.16;1619660;87;21311;-67
2021/03/02 16:20:21;;;;;;;37.13;14.00;;;;;;;3.53;66.40;100893.22;1620654;87;21560;-68
2021/03/02 16:22:56;;;;;;;23.10;9.00;;;;;;;3.50;66.43;100890.29;1620095;87;21369;-65
2021/03/02 16:25:24;;;;;;;33.28;11.45;;;;;;;3.48;66.59;100902.62;1608078;87;21497;-66
2021/03/02 16:27:51;;;;;;;34.05;13.45;;;;;;;3.47;66.67;100906.32;1601451;88;21402;-66
2021/03/02 16:30:20;;;;;;;28.98;11.20;;;;;;;3.50;66.70;100907.90;1591939;88;21212;-68
2021/03/02 16:32:55;;;;;;;34.90;12.55;;;;;;;3.49;66.70;100900.27;1616387;88;21314;-67
2021/03/02 16:35:24;;;;;;;29.12;11.73;;;;;;;3.50;66.72;100904.69;1614710;88;21215;-67
2021/03/02 16:37:52;;;;;;;27.37;11.12;;;;;;;3.51;66.68;100910.97;1616142;88;21318;-66
2021/03/02 16:40:23;;;;;;;29.02;10.75;;;;;;;3.48;66.67;100903.97;1616277;88;21446;-63
2021/03/02 16:42:52;;;;;;;28.05;11.57;;;;;;;3.47;66.83;100915.80;1633644;87;21255;-68
2021/03/02 16:45:26;;;;;;;30.48;11.93;;;;;;;3.46;66.90;100920.01;1619298;87;21251;-69
2021/03/02 16:47:58;;;;;;;34.33;11.93;;;;;;;3.45;67.02;100932.70;1622327;87;21956;-68
2021/03/02 16:50:29;;;;;;;33.35;12.85;;;;;;;3.46;67.10;100933.55;1628259;87;21787;-70
2021/03/02 16:53:05;;;;;;;34.20;12.60;;;;;;;3.44;67.09;100944.53;1602791;87;21226;-64
2021/03/02 16:55:51;;;;;;;31.60;10.82;;;;;;;3.43;67.20;100931.98;1653552;86;21296;-68
2021/03/02 16:58:26;;;;;;;28.57;9.83;;;;;;;3.43;67.21;100930.62;1619854;86;21180;-67
2021/03/02 17:01:14;;;;;;;27.20;10.50;;;;;;;3.42;67.25;100947.88;1631391;87;21166;-65
2021/03/02 17:03:51;;;;;;;30.57;11.85;;;;;;;3.40;67.30;100951.22;1616605;87;21355;-68
2021/03/02 17:06:29;;;;;;;28.38;11.08;;;;;;;3.38;67.35;100958.63;1612118;87;21470;-66
2021/03/02 17:09:02;;;;;;;29.25;11.10;;;;;;;3.36;67.46;100957.05;1608995;89;21520;-66
2021/03/02 17:11:29;;;;;;;35.58;13.40;;;;;;;3.34;67.58;100984.27;1631535;86;21329;-69
2021/03/02 17:13:56;;;;;;;31.00;11.57;;;;;;;3.32;67.66;100964.59;1608956;87;21295;-68
2021/03/02 17:16:23;;;;;;;30.23;12.00;;;;;;;3.31;67.77;100977.77;1634171;87;21303;-66
2021/03/02 17:18:54;;;;;;;33.73;12.37;;;;;;;3.32;67.84;100982.20;1635150;87;21177;-65
2021/03/02 17:21:22;;;;;;;31.48;11.00;;;;;;;3.36;67.76;100984.12;1624201;88;21168;-65
2021/03/02 17:23:49;;;;;;;27.17;9.28;;;;;;;3.35;67.84;100995.47;1614540;88;22003;-66
2021/03/02 17:26:16;;;;;;;60.83;35.55;;;;;;;3.34;67.88;100998.31;1602371;88;21495;-68
2021/03/02 17:28:44;;;;;;;30.60;12.60;;;;;;;3.35;67.99;101005.44;1604257;88;21164;-68
2021/03/02 17:31:11;;;;;;;30.05;12.07;;;;;;;3.38;68.06;101002.45;1603810;88;21988;-67
2021/03/02 17:33:39;;;;;;;28.92;11.22;;;;;;;3.41;68.01;101004.40;1611709;87;21391;-65
2021/03/02 17:36:12;;;;;;;32.75;10.60;;;;;;;3.44;67.97;101000.55;1604154;88;21198;-67
2021/03/02 17:38:39;;;;;;;31.02;11.18;;;;;;;3.45;68.05;101020.73;1600941;88;21941;-69
2021/03/02 17:41:07;;;;;;;31.02;11.93;;;;;;;3.50;68.10;101013.05;1593930;89;21447;-65
2021/03/02 17:43:34;;;;;;;28.35;11.08;;;;;;;3.54;68.07;101004.66;1613707;87;21443;-68
2021/03/02 17:46:06;;;;;;;28.27;11.10;;;;;;;3.55;67.99;101007.22;1607608;87;21638;-68
2021/03/02 17:48:33;;;;;;;32.53;11.48;;;;;;;3.58;68.00;101019.64;1613377;88;21592;-67
2021/03/02 17:51:01;;;;;;;26.12;10.13;;;;;;;3.59;67.94;101022.70;1612582;87;21339;-65
2021/03/02 17:53:29;;;;;;;25.35;9.88;;;;;;;3.61;67.95;101022.93;1617480;86;21192;-64
2021/03/02 17:55:56;;;;;;;28.38;10.32;;;;;;;3.64;67.96;101022.66;1619607;87;21420;-62
2021/03/02 17:58:24;;;;;;;24.67;10.08;;;;;;;3.68;68.04;101021.88;1631672;87;21180;-62
2021/03/02 18:00:52;;;;;;;27.55;10.70;;;;;;;3.70;67.87;101027.52;1621326;86;21340;-64
2021/03/02 18:03:23;;;;;;;25.52;9.68;;;;;;;3.69;67.95;101022.23;1620303;87;21449;-64
2021/03/02 18:05:49;;;;;;;28.05;11.80;;;;;;;3.67;67.99;101041.34;1627673;86;21476;-65
2021/03/02 18:08:17;;;;;;;31.25;11.95;;;;;;;3.67;68.08;101020.16;1624141;87;21334;-66
2021/03/02 18:10:45;;;;;;;28.57;10.28;;;;;;;3.70;68.06;101027.52;1618005;87;21579;-63
2021/03/02 18:13:12;;;;;;;28.83;10.95;;;;;;;3.70;68.07;101026.66;1598554;87;21491;-65
2021/03/02 18:15:40;;;;;;;23.77;8.73;;;;;;;3.70;68.16;101029.38;1616661;87;21217;-63
2021/03/02 18:18:08;;;;;;;29.25;9.80;;;;;;;3.70;68.19;101032.94;1624122;88;21423;-65
2021/03/02 18:20:36;;;;;;;21.20;9.03;;;;;;;3.70;68.25;101018.53;1630984;88;21378;-65
2021/03/02 18:23:04;;;;;;;21.75;8.75;;;;;;;3.73;68.33;101008.77;1639496;87;21609;-64
2021/03/02 18:25:33;;;;;;;24.27;9.45;;;;;;;3.76;68.23;100992.23;1636753;87;21960;-65
2021/03/02 18:28:01;;;;;;;20.02;8.80;;;;;;;3.78;68.05;100990.23;1639678;87;21327;-64
2021/03/02 18:30:28;;;;;;;20.62;8.10;;;;;;;3.72;67.99;100986.73;1625116;87;21310;-65
2021/03/02 18:32:55;;;;;;;22.67;8.93;;;;;;;3.68;68.05;101001.05;1619284;88;21956;-65
2021/03/02 18:35:23;;;;;;;25.82;10.03;;;;;;;3.64;68.13;101007.75;1620306;87;21532;-64
2021/03/02 18:37:52;;;;;;;26.00;9.15;;;;;;;3.58;68.25;101002.88;1611318;89;21161;-64
2021/03/02 18:40:20;;;;;;;24.30;9.73;;;;;;;3.56;68.30;100994.53;1605058;88;21177;-64
2021/03/02 18:42:47;;;;;;;26.23;10.32;;;;;;;3.52;68.47;100999.37;1613316;88;21177;-64
2021/03/02 18:45:15;;;;;;;25.20;9.70;;;;;;;3.50;68.55;100997.30;1608322;89;21872;-64
2021/03/02 18:47:42;;;;;;;21.87;8.88;;;;;;;3.48;68.70;100993.37;1616379;88;21703;-63
2021/03/02 18:50:11;;;;;;;24.65;9.53;;;;;;;3.48;68.74;100999.28;1604243;88;21184;-64
2021/03/02 18:52:38;;;;;;;20.68;8.60;;;;;;;3.48;68.82;101005.56;1624234;86;21264;-64
2021/03/02 18:55:07;;;;;;;22.60;8.48;;;;;;;3.47;68.92;101003.84;1626436;87;21477;-64
2021/03/02 18:57:36;;;;;;;22.13;9.23;;;;;;;3.46;68.91;101000.78;1621301;86;21877;-64
2021/03/02 19:00:05;;;;;;;22.42;8.58;;;;;;;3.45;68.91;101013.97;1621707;86;21193;-62
2021/03/02 19:02:32;;;;;;;23.07;8.63;;;;;;;3.43;68.93;101017.30;1600368;88;21381;-65
2021/03/02 19:05:00;;;;;;;21.55;9.23;;;;;;;3.42;68.98;101012.02;1605494;88;21216;-64
2021/03/02 19:07:27;;;;;;;21.62;8.48;;;;;;;3.40;69.03;101011.30;1602188;89;21161;-64
2021/03/02 19:09:55;;;;;;;20.27;8.25;;;;;;;3.36;69.10;101012.08;1600605;89;21228;-62
2021/03/02 19:12:23;;;;;;;22.82;9.08;;;;;;;3.35;69.18;101010.36;1586639;89;21459;-65
2021/03/02 19:14:51;;;;;;;22.07;9.18;;;;;;;3.35;69.21;101013.06;1614998;88;21626;-65
2021/03/02 19:17:18;;;;;;;22.93;8.93;;;;;;;3.37;69.22;101012.93;1608067;87;21193;-64
2021/03/02 19:19:45;;;;;;;22.65;9.23;;;;;;;3.37;69.23;101021.91;1614243;89;21276;-65
2021/03/02 19:22:13;;;;;;;22.87;9.70;;;;;;;3.35;69.22;101027.97;1614561;87;21180;-64
2021/03/02 19:24:40;;;;;;;22.45;9.13;;;;;;;3.33;69.33;101017.77;1608095;88;21180;-63
2021/03/02 19:27:08;;;;;;;23.47;9.15;;;;;;;3.34;69.36;101025.39;1616089;87;21649;-64
2021/03/02 19:29:37;;;;;;;20.40;8.15;;;;;;;3.36;69.43;101038.30;1622866;88;21256;-64
2021/03/02 19:32:05;;;;;;;20.30;8.18;;;;;;;3.37;69.40;101038.66;1623240;88;21180;-66
2021/03/02 19:34:32;;;;;;;21.20;8.70;;;;;;;3.37;69.36;101032.75;1623489;88;21175;-65
2021/03/02 19:37:00;;;;;;;18.90;7.75;;;;;;;3.38;69.32;101034.95;1623458;88;21204;-65
2021/03/02 19:39:27;;;;;;;19.37;8.78;;;;;;;3.37;69.40;101036.81;1623780;87;21523;-65
2021/03/02 19:41:55;;;;;;;19.05;8.73;;;;;;;3.38;69.33;101037.17;1623505;88;21167;-63
2021/03/02 19:44:22;;;;;;;21.85;8.78;;;;;;;3.36;69.29;101037.80;1623473;88;21200;-66
2021/03/02 19:46:49;;;;;;;19.90;7.92;;;;;;;3.35;69.34;101042.86;1623504;88;21693;-66
2021/03/02 19:49:17;;;;;;;24.45;9.93;;;;;;;3.35;69.35;101048.77;1623762;88;21148;-65
2021/03/02 19:51:45;;;;;;;20.62;8.35;;;;;;;3.34;69.37;101043.86;1623533;87;21208;-65
2021/03/02 19:54:12;;;;;;;17.95;7.72;;;;;;;3.35;69.36;101049.63;1623673;87;21171;-65
2021/03/02 19:56:42;;;;;;;18.25;7.72;;;;;;;3.34;69.37;101061.95;1620829;88;21176;-64
2021/03/02 19:59:10;;;;;;;20.43;7.97;;;;;;;3.33;69.40;101042.14;1623641;87;21282;-65
2021/03/02 20:01:39;;;;;;;18.73;7.40;;;;;;;3.30;69.42;101058.66;1639294;86;21590;-64
2021/03/02 20:04:08;;;;;;;19.50;8.38;;;;;;;3.30;69.50;101062.72;1678464;85;21193;-65
2021/03/02 20:06:39;;;;;;;17.55;7.47;;;;;;;3.32;69.51;101067.51;1678432;84;21157;-65
2021/03/02 20:09:09;;;;;;;17.10;7.65;;;;;;;3.33;69.54;101071.93;1678472;85;21297;-65
2021/03/02 20:11:39;;;;;;;17.25;7.15;;;;;;;3.33;69.54;101069.22;1678467;84;21186;-65
2021/03/02 20:14:09;;;;;;;16.75;7.70;;;;;;;3.33;69.55;101068.37;1678478;84;21203;-65
2021/03/02 20:16:39;;;;;;;19.35;7.53;;;;;;;3.30;69.58;101074.05;1678473;85;21245;-65
2021/03/02 20:19:10;;;;;;;17.17;7.53;;;;;;;3.28;69.65;101068.77;1678410;85;21154;-64
2021/03/02 20:21:41;;;;;;;16.30;6.17;;;;;;;3.30;69.74;101068.64;1678459;85;21177;-65
2021/03/02 20:24:12;;;;;;;17.95;6.53;;;;;;;3.29;69.76;101073.69;1678446;84;21247;-65
2021/03/02 20:26:42;;;;;;;19.50;7.80;;;;;;;3.27;69.84;101077.89;1679285;85;21127;-66
2021/03/02 20:29:12;;;;;;;15.58;6.83;;;;;;;3.28;69.91;101079.60;1682753;84;21158;-67
2021/03/02 20:31:42;;;;;;;16.82;7.05;;;;;;;3.26;69.94;101073.47;1629355;87;21214;-64
2021/03/02 20:34:12;;;;;;;17.70;6.47;;;;;;;3.28;69.95;101083.67;1640048;87;21167;-65
2021/03/02 20:36:42;;;;;;;15.05;7.15;;;;;;;3.29;69.97;101077.75;1640033;87;21260;-65
2021/03/02 20:39:12;;;;;;;13.72;5.92;;;;;;;3.27;70.00;101083.30;1640013;87;21218;-64
2021/03/02 20:41:45;;;;;;;15.25;6.40;;;;;;;3.26;70.08;101081.59;1641548;87;21202;-64
2021/03/02 20:44:15;;;;;;;15.13;6.35;;;;;;;3.21;70.12;101077.03;1639995;87;21693;-63
2021/03/02 20:46:45;;;;;;;13.85;6.22;;;;;;;3.19;70.27;101093.42;1639976;87;21179;-64
2021/03/02 20:49:15;;;;;;;17.40;6.95;;;;;;;3.19;70.35;101086.64;1640048;87;21144;-64
2021/03/02 20:51:45;;;;;;;16.10;6.78;;;;;;;3.21;70.44;101082.45;1640034;87;21270;-65
2021/03/02 20:54:16;;;;;;;14.43;5.85;;;;;;;3.23;70.44;101079.61;1640052;86;21152;-65
2021/03/02 20:56:46;;;;;;;15.65;6.58;;;;;;;3.21;70.52;101081.59;1640020;86;21263;-64
2021/03/02 20:59:16;;;;;;;15.90;6.28;;;;;;;3.23;70.52;101079.11;1639932;87;21188;-64
